Aviation Digital Data Service (ADDS)

Output produced by METARs form (1251 UTC 22 March 2019)
found at http://www.aviationweather.gov/metar/data/
 
Forecast for: ZSPD (SHANGHAI/PUDONG , CN)
Text: TAF ZSPD 220911Z 2212/2312 01005MPS 6000 BKN016 TX14/2306Z TN06/2221Z
Forecast period: 1200 UTC 22 March 2019 to 1200 UTC 23 March 2019
Forecast type: FROM: standard forecast or significant change
Winds: from the N (10 degrees) at 12 MPH (10 knots; 5.1 m/s)
Visibility: 4 miles (6 km)
Ceiling: 1600 feet AGL
Clouds: broken clouds at 1600 feet AGL
Weather: no significant weather forecast for this period